createdAt,value
2023-02-06T00:00:23.565Z,1020.63
2023-02-06T00:05:25.858Z,1020.68
2023-02-06T00:10:29.975Z,1020.51
2023-02-06T00:15:32.273Z,1020.49
2023-02-06T00:20:36.439Z,1020.44
2023-02-06T00:25:40.602Z,1020.42
2023-02-06T00:30:44.861Z,1020.34
2023-02-06T00:35:48.930Z,1020.26
2023-02-06T00:40:53.073Z,1020.24
2023-02-06T00:45:57.262Z,1020.20
2023-02-06T00:51:01.417Z,1020.20
2023-02-06T00:56:05.613Z,1020.17
2023-02-06T01:01:09.792Z,1020.18
2023-02-06T01:06:13.930Z,1020.15
2023-02-06T01:11:18.096Z,1020.14
2023-02-06T01:16:22.393Z,1020.14
2023-02-06T01:21:26.398Z,1020.12
2023-02-06T01:26:30.571Z,1020.12
2023-02-06T01:31:34.778Z,1020.17
2023-02-06T01:36:38.928Z,1020.15
2023-02-06T01:41:43.071Z,1020.27
2023-02-06T01:46:47.339Z,1020.19
2023-02-06T01:51:51.396Z,1020.23
2023-02-06T01:56:55.571Z,1020.34
2023-02-06T02:01:57.902Z,1020.16
2023-02-06T02:07:02.021Z,1020.19
2023-02-06T02:12:06.172Z,1020.12
2023-02-06T02:17:10.340Z,1020.31
2023-02-06T02:22:14.521Z,1020.25
2023-02-06T02:27:18.794Z,1020.27
2023-02-06T02:32:22.825Z,1020.09
2023-02-06T02:37:25.205Z,1020.11
2023-02-06T02:42:29.262Z,1020.13
2023-02-06T02:47:33.468Z,1020.12
2023-02-06T02:52:37.652Z,1020.10
2023-02-06T02:57:41.770Z,1020.04
2023-02-06T03:02:45.968Z,1020.14
2023-02-06T03:07:50.138Z,1020.07
2023-02-06T03:12:54.257Z,1020.17
2023-02-06T03:17:58.492Z,1020.04
2023-02-06T03:23:02.623Z,1020.07
2023-02-06T03:28:06.821Z,1020.12
2023-02-06T03:33:11.022Z,1020.14
2023-02-06T03:38:15.108Z,1020.18
2023-02-06T03:43:19.275Z,1020.18
2023-02-06T03:48:21.647Z,1020.21
2023-02-06T03:53:25.720Z,1020.12
2023-02-06T03:58:28.110Z,1020.13
2023-02-06T04:03:32.186Z,1020.18
2023-02-06T04:08:34.442Z,1020.24
2023-02-06T04:13:38.599Z,1020.36
2023-02-06T04:18:42.750Z,1020.30
2023-02-06T04:23:46.952Z,1020.44
2023-02-06T04:28:51.083Z,1020.49
2023-02-06T04:33:55.261Z,1020.35
2023-02-06T04:38:59.451Z,1020.40
2023-02-06T04:44:03.589Z,1020.38
2023-02-06T04:49:07.775Z,1020.39
2023-02-06T04:54:11.969Z,1020.38
2023-02-06T04:59:16.104Z,1020.34
2023-02-06T05:04:20.295Z,1020.18
2023-02-06T05:09:24.428Z,1020.07
2023-02-06T05:14:28.579Z,1020.03
2023-02-06T05:19:32.730Z,1020.00
2023-02-06T05:24:36.953Z,1019.97
2023-02-06T05:29:41.085Z,1019.85
2023-02-06T05:34:45.268Z,1019.89
2023-02-06T05:39:49.438Z,1019.85
2023-02-06T05:44:53.566Z,1019.88
2023-02-06T05:49:57.782Z,1019.60
2023-02-06T05:55:00.043Z,1019.60
2023-02-06T06:00:04.245Z,1019.56
2023-02-06T06:05:06.623Z,1019.57
2023-02-06T06:10:10.660Z,1019.56
2023-02-06T06:15:14.831Z,1019.59
2023-02-06T06:20:19.023Z,1019.61
2023-02-06T06:25:23.118Z,1019.54
2023-02-06T06:30:27.349Z,1019.54
2023-02-06T06:35:31.492Z,1019.46
2023-02-06T06:40:35.614Z,1019.33
2023-02-06T06:45:40.022Z,1019.42
2023-02-06T06:50:43.983Z,1019.33
2023-02-06T06:55:48.149Z,1019.33
2023-02-06T07:05:56.469Z,1019.33
2023-02-06T07:11:00.633Z,1019.36
2023-02-06T07:16:04.885Z,1019.29
2023-02-06T07:21:09.007Z,1019.34
2023-02-06T07:26:13.118Z,1019.42
2023-02-06T07:31:17.343Z,1019.28
2023-02-06T07:36:21.436Z,1019.24
2023-02-06T07:41:25.641Z,1019.30
2023-02-06T07:46:29.783Z,1019.19
2023-02-06T07:51:33.943Z,1018.96
2023-02-06T07:56:36.238Z,1018.95
2023-02-06T08:01:40.399Z,1018.86
2023-02-06T08:06:44.570Z,1018.86
2023-02-06T08:11:48.785Z,1018.97
2023-02-06T08:16:53.036Z,1019.09
2023-02-06T08:21:57.063Z,1018.99
2023-02-06T08:27:01.214Z,1018.91
2023-02-06T08:32:05.418Z,1018.98
2023-02-06T08:37:09.559Z,1019.01
2023-02-06T08:42:13.752Z,1018.97
2023-02-06T08:47:18.049Z,1018.96
2023-02-06T08:52:22.051Z,1018.96
2023-02-06T08:57:26.208Z,1018.73
2023-02-06T09:02:30.432Z,1018.90
2023-02-06T09:07:34.558Z,1018.78
2023-02-06T09:12:38.788Z,1018.95
2023-02-06T09:17:42.869Z,1018.94
2023-02-06T09:22:47.033Z,1018.99
2023-02-06T09:27:51.207Z,1018.88
2023-02-06T09:32:55.355Z,1018.85
2023-02-06T09:37:59.547Z,1018.83
2023-02-06T09:43:01.790Z,1018.86
2023-02-06T09:48:05.977Z,1018.92
2023-02-06T09:53:08.213Z,1018.93
2023-02-06T09:58:12.369Z,1018.78
2023-02-06T10:03:14.667Z,1018.76
2023-02-06T10:08:18.853Z,1018.69
2023-02-06T10:13:23.012Z,1018.64
2023-02-06T10:18:27.159Z,1018.62
2023-02-06T10:23:31.328Z,1018.52
2023-02-06T10:28:35.513Z,1018.30
2023-02-06T10:33:39.683Z,1018.16
2023-02-06T10:38:43.851Z,1018.07
2023-02-06T10:43:48.005Z,1017.94
2023-02-06T10:48:53.578Z,1017.75
2023-02-06T10:53:56.335Z,1017.58
2023-02-06T10:59:00.504Z,1017.57
2023-02-06T11:04:04.678Z,1017.24
2023-02-06T11:09:08.812Z,1017.04
2023-02-06T11:14:12.992Z,1016.85
2023-02-06T11:19:17.178Z,1016.70
2023-02-06T11:24:21.338Z,1016.61
2023-02-06T11:29:25.449Z,1016.61
2023-02-06T11:34:29.667Z,1016.65
2023-02-06T11:39:33.775Z,1016.65
2023-02-06T11:44:38.008Z,1016.73
2023-02-06T11:49:40.237Z,1016.95
2023-02-06T11:54:44.379Z,1017.26
2023-02-06T11:59:46.625Z,1017.25
2023-02-06T12:04:50.819Z,1017.58
2023-02-06T12:09:55.011Z,1018.04
2023-02-06T12:14:59.185Z,1018.32
2023-02-06T12:20:03.328Z,1018.53
2023-02-06T12:25:07.494Z,1018.88
2023-02-06T12:30:11.698Z,1019.05
2023-02-06T12:35:15.839Z,1019.18
2023-02-06T12:40:19.958Z,1019.25
2023-02-06T12:45:24.126Z,1019.26
2023-02-06T12:50:28.302Z,1019.29
2023-02-06T12:55:32.559Z,1019.36
2023-02-06T13:00:36.610Z,1019.33
2023-02-06T13:05:40.795Z,1019.45
2023-02-06T13:10:44.935Z,1019.58
2023-02-06T13:15:49.130Z,1019.66
2023-02-06T13:20:53.281Z,1019.57
2023-02-06T13:25:57.459Z,1019.34
2023-02-06T13:31:01.736Z,1019.17
2023-02-06T13:36:05.769Z,1019.13
2023-02-06T13:41:09.946Z,1018.92
2023-02-06T13:46:12.232Z,1018.97
2023-02-06T13:51:16.368Z,1019.09
2023-02-06T13:56:20.521Z,1019.08
2023-02-06T14:01:22.916Z,1019.11
2023-02-06T14:06:26.954Z,1019.18
2023-02-06T14:11:31.212Z,1019.21
2023-02-06T14:16:35.317Z,1019.10
2023-02-06T14:21:39.462Z,1018.98
2023-02-06T14:26:43.610Z,1018.86
2023-02-06T14:31:48.013Z,1018.70
2023-02-06T14:36:51.938Z,1018.55
2023-02-06T14:41:56.090Z,1018.38
2023-02-06T14:47:00.359Z,1018.31
2023-02-06T14:52:04.442Z,1018.32
2023-02-06T14:57:08.610Z,1018.35
2023-02-06T15:02:12.821Z,1018.38
2023-02-06T15:07:16.928Z,1018.40
2023-02-06T15:12:21.125Z,1018.47
2023-02-06T15:17:27.227Z,1018.54
2023-02-06T15:22:29.420Z,1018.46
2023-02-06T15:27:33.593Z,1018.30
2023-02-06T15:32:37.780Z,1018.23
2023-02-06T15:37:41.952Z,1018.37
2023-02-06T15:42:46.071Z,1018.31
2023-02-06T15:47:48.389Z,1018.28
2023-02-06T15:52:52.508Z,1018.28
2023-02-06T15:57:56.717Z,1018.29
2023-02-06T16:02:58.952Z,1018.28
2023-02-06T16:08:03.128Z,1018.22
2023-02-06T16:13:07.250Z,1018.31
2023-02-06T16:18:11.442Z,1018.19
2023-02-06T16:23:15.619Z,1018.13
2023-02-06T16:28:19.877Z,1017.99
2023-02-06T16:33:23.946Z,1017.96
2023-02-06T16:38:28.099Z,1018.05
2023-02-06T16:43:32.253Z,1018.02
2023-02-06T16:48:36.422Z,1017.84
2023-02-06T16:53:40.661Z,1017.79
2023-02-06T16:58:44.764Z,1017.74
2023-02-06T17:03:48.905Z,1017.74
2023-02-06T17:08:53.073Z,1017.78
2023-02-06T17:13:57.228Z,1017.96
2023-02-06T17:19:01.441Z,1018.10
2023-02-06T17:24:05.561Z,1018.33
2023-02-06T17:29:09.738Z,1018.48
2023-02-06T17:34:13.891Z,1018.78
2023-02-06T17:39:18.048Z,1018.96
2023-02-06T17:44:22.235Z,1019.08
2023-02-06T17:49:24.552Z,1019.17
2023-02-06T17:54:28.680Z,1019.19
2023-02-06T17:59:32.816Z,1019.07
2023-02-06T18:04:35.109Z,1019.02
2023-02-06T18:09:41.036Z,1019.07
2023-02-06T18:14:43.442Z,1019.04
2023-02-06T18:19:47.596Z,1018.96
2023-02-06T18:24:51.773Z,1018.99
2023-02-06T18:29:56.017Z,1018.90
2023-02-06T18:35:00.107Z,1018.83
2023-02-06T18:40:04.234Z,1018.83
2023-02-06T18:45:08.444Z,1018.93
2023-02-06T18:50:12.568Z,1018.79
2023-02-06T18:55:16.744Z,1018.69
2023-02-06T19:00:20.889Z,1018.70
2023-02-06T19:05:25.083Z,1018.67
2023-02-06T19:10:29.238Z,1018.70
2023-02-06T19:15:33.452Z,1018.62
2023-02-06T19:20:37.753Z,1018.58
2023-02-06T19:25:41.734Z,1018.55
2023-02-06T19:30:45.959Z,1018.52
2023-02-06T19:35:48.190Z,1018.57
2023-02-06T19:40:52.350Z,1018.61
2023-02-06T19:45:56.526Z,1018.76
2023-02-06T19:50:58.775Z,1018.73
2023-02-06T19:56:02.922Z,1018.70
2023-02-06T20:01:05.279Z,1018.57
2023-02-06T20:06:09.408Z,1018.75
2023-02-06T20:11:13.531Z,1018.71
2023-02-06T20:16:17.794Z,1018.83
2023-02-06T20:26:26.621Z,1018.68
2023-02-06T20:31:30.394Z,1018.71
2023-02-06T20:36:34.380Z,1018.63
2023-02-06T20:41:38.549Z,1018.66
2023-02-06T20:46:42.736Z,1018.52
2023-02-06T20:51:46.935Z,1018.45
2023-02-06T20:56:51.018Z,1018.47
2023-02-06T21:01:55.222Z,1018.49
2023-02-06T21:06:59.362Z,1018.36
2023-02-06T21:12:03.515Z,1018.27
2023-02-06T21:17:07.735Z,1018.19
2023-02-06T21:22:11.857Z,1018.33
2023-02-06T21:27:16.030Z,1018.47
2023-02-06T21:32:20.293Z,1018.26
2023-02-06T21:37:24.382Z,1018.23
2023-02-06T21:42:28.532Z,1018.06
2023-02-06T21:47:32.759Z,1017.93
2023-02-06T21:52:34.976Z,1017.95
2023-02-06T21:57:39.164Z,1017.96
2023-02-06T22:02:41.466Z,1017.90
2023-02-06T22:07:45.577Z,1017.68
2023-02-06T22:12:49.753Z,1017.94
2023-02-06T22:17:53.912Z,1017.89
2023-02-06T22:22:58.097Z,1017.74
2023-02-06T22:28:02.271Z,1017.81
2023-02-06T22:33:06.427Z,1017.84
2023-02-06T22:38:10.576Z,1017.79
2023-02-06T22:43:14.718Z,1017.87
2023-02-06T22:48:18.914Z,1017.76
2023-02-06T22:53:23.067Z,1017.84
2023-02-06T22:58:27.230Z,1017.86
2023-02-06T23:03:31.408Z,1017.95
2023-02-06T23:08:35.569Z,1017.99
2023-02-06T23:13:39.749Z,1018.16
2023-02-06T23:18:43.960Z,1018.11
2023-02-06T23:23:48.086Z,1018.23
2023-02-06T23:28:52.272Z,1018.23
2023-02-06T23:33:56.429Z,1018.33
2023-02-06T23:39:00.584Z,1018.54
2023-02-06T23:44:04.711Z,1018.47
2023-02-06T23:49:06.994Z,1018.59
2023-02-06T23:54:11.195Z,1018.80
2023-02-06T23:59:15.535Z,1018.81
